createdAt,value
2019-01-09T00:00:39.005Z,88.90
2019-01-09T00:01:38.895Z,88.90
2019-01-09T00:02:39.038Z,88.51
2019-01-09T00:03:39.152Z,88.71
2019-01-09T00:04:39.078Z,88.90
2019-01-09T00:05:38.966Z,89.25
2019-01-09T00:06:38.983Z,88.71
2019-01-09T00:07:39.015Z,89.00
2019-01-09T00:08:39.168Z,89.48
2019-01-09T00:09:39.059Z,89.48
2019-01-09T00:10:39.067Z,89.34
2019-01-09T00:11:39.064Z,90.12
2019-01-09T00:12:39.095Z,89.83
2019-01-09T00:13:39.231Z,90.12
2019-01-09T00:14:39.217Z,90.41
2019-01-09T00:15:39.277Z,90.70
2019-01-09T00:16:39.163Z,90.70
2019-01-09T00:17:39.182Z,90.60
2019-01-09T00:18:39.195Z,91.28
2019-01-09T00:19:39.267Z,91.28
2019-01-09T00:20:39.353Z,90.70
2019-01-09T00:21:39.253Z,90.65
2019-01-09T00:22:39.537Z,91.08
2019-01-09T00:23:39.333Z,90.94
2019-01-09T00:24:39.307Z,91.08
2019-01-09T00:25:39.357Z,91.28
2019-01-09T00:26:39.346Z,91.24
2019-01-09T00:27:39.524Z,91.04
2019-01-09T00:28:39.494Z,90.99
2019-01-09T00:29:39.384Z,91.08
2019-01-09T00:30:39.504Z,91.28
2019-01-09T00:31:39.547Z,91.08
2019-01-09T00:32:39.454Z,90.99
2019-01-09T00:33:39.453Z,91.04
2019-01-09T00:34:39.480Z,90.89
2019-01-09T00:35:39.715Z,91.04
2019-01-09T00:36:39.523Z,90.80
2019-01-09T00:37:39.656Z,90.80
2019-01-09T00:38:40.654Z,91.28
2019-01-09T00:39:39.685Z,91.47
2019-01-09T00:40:39.725Z,90.70
2019-01-09T00:41:39.611Z,90.70
2019-01-09T00:42:39.736Z,90.80
2019-01-09T00:43:39.643Z,90.89
2019-01-09T00:44:39.646Z,90.89
2019-01-09T00:45:39.891Z,90.89
2019-01-09T00:46:39.690Z,90.70
2019-01-09T00:47:39.707Z,90.89
2019-01-09T00:48:39.715Z,90.89
2019-01-09T00:49:39.744Z,92.34
2019-01-09T00:50:39.752Z,93.70
2019-01-09T00:51:39.879Z,96.41
2019-01-09T00:52:39.809Z,96.41
2019-01-09T00:53:39.856Z,96.12
2019-01-09T00:54:39.949Z,98.15
2019-01-09T00:55:39.848Z,97.67
2019-01-09T00:56:39.912Z,98.68
2019-01-09T00:57:39.880Z,98.30
2019-01-09T00:58:39.897Z,98.68
2019-01-09T00:59:40.136Z,99.16
2019-01-09T01:00:40.053Z,99.26
2019-01-09T01:01:39.984Z,99.74
2019-01-09T01:02:40.041Z,99.94
2019-01-09T01:03:39.984Z,99.99
2019-01-09T01:04:40.109Z,99.99
2019-01-09T01:05:46.028Z,99.99
2019-01-09T01:06:40.079Z,99.99
2019-01-09T01:07:40.172Z,99.99
2019-01-09T01:08:40.076Z,99.99
2019-01-09T01:09:40.185Z,99.99
2019-01-09T01:10:40.129Z,99.99
2019-01-09T01:11:40.121Z,99.99
2019-01-09T01:12:40.138Z,99.99
2019-01-09T01:13:40.191Z,99.99
2019-01-09T01:14:40.222Z,99.99
2019-01-09T01:15:40.182Z,99.99
2019-01-09T01:16:40.209Z,99.99
2019-01-09T01:17:40.222Z,99.99
2019-01-09T01:18:40.366Z,99.99
2019-01-09T01:19:40.346Z,99.99
2019-01-09T01:20:40.270Z,99.99
2019-01-09T01:21:40.286Z,99.99
2019-01-09T01:22:40.292Z,99.99
2019-01-09T01:23:40.329Z,99.99
2019-01-09T01:24:40.437Z,99.99
2019-01-09T01:25:40.363Z,99.99
2019-01-09T01:26:40.388Z,99.99
2019-01-09T01:27:40.409Z,99.99
2019-01-09T01:28:40.537Z,99.99
2019-01-09T01:29:40.492Z,99.99
2019-01-09T01:30:40.440Z,99.99
2019-01-09T01:31:40.584Z,99.99
2019-01-09T01:32:40.597Z,99.99
2019-01-09T01:33:40.620Z,99.99
2019-01-09T01:34:40.738Z,99.99
2019-01-09T01:35:40.526Z,99.65
2019-01-09T01:36:40.671Z,99.65
2019-01-09T01:37:40.688Z,99.36
2019-01-09T01:38:40.705Z,99.16
2019-01-09T01:39:40.734Z,99.51
2019-01-09T01:40:40.628Z,99.65
2019-01-09T01:41:40.660Z,99.26
2019-01-09T01:42:40.668Z,99.26
2019-01-09T01:43:40.790Z,99.26
2019-01-09T01:44:40.782Z,99.94
2019-01-09T01:45:40.700Z,99.94
2019-01-09T01:46:40.730Z,99.99
2019-01-09T01:47:40.858Z,99.99
2019-01-09T01:48:40.759Z,99.99
2019-01-09T01:49:41.045Z,99.99
2019-01-09T01:50:40.790Z,99.99
2019-01-09T01:51:40.931Z,99.99
2019-01-09T01:52:40.817Z,99.99
2019-01-09T01:53:40.966Z,99.99
2019-01-09T01:54:40.980Z,99.99
2019-01-09T01:55:41.151Z,99.99
2019-01-09T01:56:40.907Z,99.99
2019-01-09T01:57:40.903Z,99.99
2019-01-09T01:58:41.053Z,99.99
2019-01-09T01:59:41.062Z,99.99
2019-01-09T02:00:41.061Z,99.99
2019-01-09T02:01:40.976Z,99.99
2019-01-09T02:02:41.001Z,99.99
2019-01-09T02:03:41.004Z,99.46
2019-01-09T02:04:41.025Z,98.58
2019-01-09T02:05:41.268Z,98.39
2019-01-09T02:06:41.076Z,97.72
2019-01-09T02:07:41.094Z,97.04
2019-01-09T02:08:41.110Z,96.75
2019-01-09T02:09:41.117Z,96.36
2019-01-09T02:10:41.243Z,96.84
2019-01-09T02:11:41.275Z,97.04
2019-01-09T02:12:41.154Z,97.38
2019-01-09T02:13:41.193Z,97.13
2019-01-09T02:14:41.324Z,97.23
2019-01-09T02:15:41.387Z,97.33
2019-01-09T02:16:41.238Z,98.49
2019-01-09T02:17:41.376Z,98.44
2019-01-09T02:18:41.265Z,99.26
2019-01-09T02:19:41.288Z,99.99
2019-01-09T02:20:41.521Z,99.99
2019-01-09T02:21:41.316Z,99.99
2019-01-09T02:22:41.336Z,99.99
2019-01-09T02:23:41.366Z,99.99
2019-01-09T02:24:41.366Z,99.99
2019-01-09T02:25:41.497Z,99.99
2019-01-09T02:26:41.409Z,99.99
2019-01-09T02:27:41.410Z,99.99
2019-01-09T02:28:41.561Z,99.99
2019-01-09T02:29:41.579Z,99.99
2019-01-09T02:30:41.527Z,99.99
2019-01-09T02:31:41.484Z,99.99
2019-01-09T02:32:41.520Z,99.99
2019-01-09T02:33:41.522Z,99.99
2019-01-09T02:34:41.535Z,99.99
2019-01-09T02:35:41.703Z,99.99
2019-01-09T02:36:41.571Z,99.99
2019-01-09T02:37:41.601Z,99.99
2019-01-09T02:38:41.657Z,99.99
2019-01-09T02:39:41.632Z,99.99
2019-01-09T02:40:41.780Z,99.99
2019-01-09T02:41:41.661Z,99.99
2019-01-09T02:42:41.798Z,99.99
2019-01-09T02:43:41.691Z,99.99
2019-01-09T02:44:41.828Z,99.99
2019-01-09T02:45:41.829Z,99.99
2019-01-09T02:46:41.864Z,99.99
2019-01-09T02:47:41.782Z,99.99
2019-01-09T02:48:41.776Z,99.99
2019-01-09T02:49:41.919Z,99.99
2019-01-09T02:50:41.810Z,99.99
2019-01-09T02:51:42.053Z,99.99
2019-01-09T02:52:41.838Z,99.99
2019-01-09T02:53:41.981Z,99.99
2019-01-09T02:54:41.880Z,99.99
2019-01-09T02:55:42.013Z,99.99
2019-01-09T02:56:41.998Z,99.99
2019-01-09T02:57:42.048Z,99.99
2019-01-09T02:58:42.062Z,99.99
2019-01-09T02:59:41.951Z,99.99
2019-01-09T03:00:42.101Z,99.99
2019-01-09T03:01:42.050Z,99.99
2019-01-09T03:02:42.002Z,99.99
2019-01-09T03:03:42.143Z,99.99
2019-01-09T03:04:42.057Z,99.99
2019-01-09T03:05:42.058Z,99.99
2019-01-09T03:06:42.225Z,99.99
2019-01-09T03:07:42.077Z,99.99
2019-01-09T03:08:42.097Z,99.99
2019-01-09T03:09:42.246Z,99.99
2019-01-09T03:10:42.133Z,99.99
2019-01-09T03:11:42.265Z,99.99
2019-01-09T03:12:42.160Z,99.99
2019-01-09T03:13:42.314Z,99.99
2019-01-09T03:14:42.323Z,99.99
2019-01-09T03:15:42.225Z,99.99
2019-01-09T03:16:42.407Z,99.99
2019-01-09T03:17:42.241Z,99.99
2019-01-09T03:18:42.277Z,99.99
2019-01-09T03:19:42.404Z,99.99
2019-01-09T03:20:42.296Z,99.99
2019-01-09T03:21:42.537Z,99.99
2019-01-09T03:22:42.329Z,99.99
2019-01-09T03:23:42.339Z,99.99
2019-01-09T03:24:42.487Z,99.99
2019-01-09T03:25:42.506Z,99.99
2019-01-09T03:26:42.491Z,99.99
2019-01-09T03:27:42.535Z,99.99
2019-01-09T03:28:42.553Z,99.99
2019-01-09T03:29:42.569Z,99.99
2019-01-09T03:30:42.586Z,99.99
2019-01-09T03:31:42.760Z,99.99
2019-01-09T03:32:42.491Z,99.99
2019-01-09T03:33:42.635Z,99.99
2019-01-09T03:34:42.532Z,99.99
2019-01-09T03:35:42.550Z,99.99
2019-01-09T03:36:42.764Z,99.99
2019-01-09T03:37:42.703Z,99.99
2019-01-09T03:38:42.596Z,99.99
2019-01-09T03:39:42.603Z,99.99
2019-01-09T03:40:42.631Z,99.99
2019-01-09T03:41:42.752Z,99.99
2019-01-09T03:42:42.657Z,99.99
2019-01-09T03:43:42.678Z,99.99
2019-01-09T03:44:42.811Z,99.99
2019-01-09T03:45:42.833Z,99.99
2019-01-09T03:46:42.964Z,99.99
2019-01-09T03:47:42.735Z,99.99
2019-01-09T03:48:42.766Z,99.99
2019-01-09T03:49:42.794Z,99.99
2019-01-09T03:50:42.822Z,99.99
2019-01-09T03:51:42.897Z,99.99
2019-01-09T03:52:42.818Z,99.99
2019-01-09T03:53:42.834Z,99.99
2019-01-09T03:54:42.857Z,99.99
2019-01-09T03:55:42.991Z,99.99
2019-01-09T03:56:42.887Z,99.99
2019-01-09T03:57:42.997Z,99.99
2019-01-09T03:58:42.912Z,99.99
2019-01-09T03:59:42.928Z,99.99
2019-01-09T04:00:42.966Z,99.99
2019-01-09T04:01:42.960Z,99.99
2019-01-09T04:02:43.261Z,99.99
2019-01-09T04:03:43.021Z,99.99
2019-01-09T04:04:43.138Z,99.99
2019-01-09T04:05:43.086Z,99.99
2019-01-09T04:06:43.053Z,99.99
2019-01-09T04:07:43.126Z,99.99
2019-01-09T04:08:43.199Z,99.99
2019-01-09T04:09:43.095Z,99.99
2019-01-09T04:10:43.144Z,99.99
2019-01-09T04:11:43.248Z,99.99
2019-01-09T04:12:43.265Z,99.99
2019-01-09T04:13:43.386Z,99.99
2019-01-09T04:14:43.175Z,99.99
2019-01-09T04:15:43.318Z,99.99
2019-01-09T04:16:43.338Z,99.99
2019-01-09T04:17:43.226Z,99.99
2019-01-09T04:18:43.342Z,99.99
2019-01-09T04:19:43.305Z,99.99
2019-01-09T04:20:43.283Z,99.99
2019-01-09T04:21:43.285Z,99.99
2019-01-09T04:22:43.323Z,99.99
2019-01-09T04:23:43.480Z,99.99
2019-01-09T04:24:43.333Z,99.99
2019-01-09T04:25:43.375Z,99.99
2019-01-09T04:26:43.370Z,99.99
2019-01-09T04:27:43.513Z,99.99
2019-01-09T04:28:43.641Z,99.99
2019-01-09T04:29:43.554Z,99.99
2019-01-09T04:30:43.447Z,99.99
2019-01-09T04:31:43.455Z,99.99
2019-01-09T04:32:43.595Z,99.99
2019-01-09T04:33:43.764Z,99.99
2019-01-09T04:34:43.632Z,99.99
2019-01-09T04:35:43.542Z,99.99
2019-01-09T04:36:51.319Z,99.99
2019-01-09T04:37:43.568Z,99.99
2019-01-09T04:38:43.679Z,99.99
2019-01-09T04:39:43.713Z,99.99
2019-01-09T04:40:43.642Z,99.99
2019-01-09T04:41:43.618Z,99.99
2019-01-09T04:42:43.645Z,99.99
2019-01-09T04:43:43.830Z,99.99
2019-01-09T04:44:43.669Z,99.99
2019-01-09T04:45:43.814Z,99.99
2019-01-09T04:46:43.835Z,99.99
2019-01-09T04:47:43.848Z,99.99
2019-01-09T04:48:43.842Z,99.99
2019-01-09T04:49:43.767Z,99.99
2019-01-09T04:50:43.893Z,99.99
2019-01-09T04:51:43.913Z,99.99
2019-01-09T04:52:43.797Z,99.99
2019-01-09T04:53:43.832Z,99.99
2019-01-09T04:54:43.896Z,99.99
2019-01-09T04:55:43.979Z,99.99
2019-01-09T04:56:44.034Z,99.99
2019-01-09T04:57:44.011Z,99.99
2019-01-09T04:58:43.919Z,99.99
2019-01-09T04:59:44.045Z,99.99
2019-01-09T05:00:43.997Z,99.99
2019-01-09T05:01:44.176Z,99.99
2019-01-09T05:02:43.976Z,99.99
2019-01-09T05:03:44.119Z,99.99
2019-01-09T05:04:44.012Z,99.99
2019-01-09T05:05:44.032Z,99.99
2019-01-09T05:06:44.091Z,99.99
2019-01-09T05:07:44.045Z,99.99
2019-01-09T05:08:44.194Z,99.99
2019-01-09T05:09:44.136Z,99.99
2019-01-09T05:10:44.225Z,99.99
2019-01-09T05:11:44.126Z,99.99
2019-01-09T05:12:44.135Z,99.99
2019-01-09T05:13:44.147Z,99.99
2019-01-09T05:14:44.266Z,99.99
2019-01-09T05:15:44.188Z,99.99
2019-01-09T05:16:44.198Z,99.99
2019-01-09T05:17:44.215Z,99.99
2019-01-09T05:18:44.357Z,99.99
2019-01-09T05:19:44.350Z,99.99
2019-01-09T05:20:44.390Z,99.99
2019-01-09T05:21:44.411Z,99.99
2019-01-09T05:22:44.294Z,99.99
2019-01-09T05:23:44.444Z,99.99
2019-01-09T05:24:45.680Z,99.99
2019-01-09T05:25:44.364Z,99.99
2019-01-09T05:26:44.389Z,99.99
2019-01-09T05:27:44.389Z,99.99
2019-01-09T05:28:44.411Z,99.99
2019-01-09T05:29:44.480Z,99.99
2019-01-09T05:30:44.425Z,99.99
2019-01-09T05:31:44.570Z,99.99
2019-01-09T05:32:44.463Z,99.99
2019-01-09T05:33:44.701Z,99.99
2019-01-09T05:34:44.488Z,99.99
2019-01-09T05:35:44.639Z,99.99
2019-01-09T05:36:44.650Z,99.99
2019-01-09T05:37:44.548Z,99.99
2019-01-09T05:38:44.663Z,99.99
2019-01-09T05:39:44.701Z,99.99
2019-01-09T05:40:44.720Z,99.99
2019-01-09T05:41:44.612Z,99.99
2019-01-09T05:42:44.626Z,99.99
2019-01-09T05:43:44.789Z,99.99
2019-01-09T05:44:44.781Z,99.99
2019-01-09T05:45:44.689Z,99.99
2019-01-09T05:46:44.723Z,99.99
2019-01-09T05:47:44.832Z,99.99
2019-01-09T05:48:44.876Z,99.99
2019-01-09T05:49:44.738Z,99.99
2019-01-09T05:50:44.759Z,99.99
2019-01-09T05:51:44.891Z,99.99
2019-01-09T05:52:44.788Z,99.99
2019-01-09T05:53:44.820Z,99.99
2019-01-09T05:54:44.913Z,99.99
2019-01-09T05:55:44.852Z,99.99
2019-01-09T05:56:44.857Z,99.99
2019-01-09T05:57:44.865Z,99.99
2019-01-09T05:58:44.919Z,99.99
2019-01-09T05:59:45.122Z,99.99
2019-01-09T06:00:44.920Z,99.99
2019-01-09T06:01:44.923Z,99.99
2019-01-09T06:02:45.077Z,99.99
2019-01-09T06:03:44.963Z,99.99
2019-01-09T06:04:45.202Z,99.99
2019-01-09T06:05:45.002Z,99.99
2019-01-09T06:06:45.133Z,99.99
2019-01-09T06:07:45.066Z,99.99
2019-01-09T06:08:45.053Z,99.99
2019-01-09T06:09:45.064Z,99.99
2019-01-09T06:10:45.302Z,99.99
2019-01-09T06:11:45.085Z,99.99
2019-01-09T06:12:45.231Z,99.99
2019-01-09T06:13:45.121Z,99.99
2019-01-09T06:14:45.144Z,99.99
2019-01-09T06:15:45.380Z,99.99
2019-01-09T06:16:45.173Z,99.99
2019-01-09T06:17:45.313Z,99.99
2019-01-09T06:18:45.209Z,99.99
2019-01-09T06:19:45.250Z,99.99
2019-01-09T06:20:45.396Z,99.99
2019-01-09T06:21:45.265Z,99.99
2019-01-09T06:22:45.332Z,99.99
2019-01-09T06:23:45.283Z,99.99
2019-01-09T06:24:45.294Z,99.99
2019-01-09T06:25:45.419Z,99.99
2019-01-09T06:26:45.348Z,99.99
2019-01-09T06:27:45.362Z,99.99
2019-01-09T06:28:45.488Z,99.99
2019-01-09T06:29:45.390Z,99.99
2019-01-09T06:30:45.497Z,99.99
2019-01-09T06:31:45.419Z,99.99
2019-01-09T06:32:45.431Z,99.99
2019-01-09T06:33:45.576Z,99.99
2019-01-09T06:34:45.471Z,99.99
2019-01-09T06:35:45.586Z,99.99
2019-01-09T06:36:45.486Z,99.99
2019-01-09T06:37:45.632Z,99.99
2019-01-09T06:38:45.527Z,99.99
2019-01-09T06:39:45.667Z,99.99
2019-01-09T06:40:45.783Z,99.99
2019-01-09T06:41:45.563Z,99.99
2019-01-09T06:42:45.715Z,99.99
2019-01-09T06:43:45.602Z,99.99
2019-01-09T06:44:45.621Z,99.99
2019-01-09T06:45:45.750Z,99.99
2019-01-09T06:46:45.661Z,99.99
2019-01-09T06:47:45.725Z,99.99
2019-01-09T06:48:45.689Z,99.99
2019-01-09T06:49:45.706Z,99.99
2019-01-09T06:50:45.816Z,99.99
2019-01-09T06:51:45.731Z,99.99
2019-01-09T06:52:45.875Z,99.99
2019-01-09T06:53:45.894Z,99.99
2019-01-09T06:54:45.780Z,99.99
2019-01-09T06:55:45.830Z,99.99
2019-01-09T06:56:45.990Z,99.99
2019-01-09T06:57:45.837Z,99.99
2019-01-09T06:58:45.975Z,99.99
2019-01-09T06:59:45.859Z,99.99
2019-01-09T07:00:45.868Z,99.99
2019-01-09T07:01:45.995Z,99.99
2019-01-09T07:02:45.945Z,99.99
2019-01-09T07:03:46.054Z,99.99
2019-01-09T07:04:46.062Z,99.99
2019-01-09T07:05:46.081Z,99.99
2019-01-09T07:06:46.198Z,99.99
2019-01-09T07:07:46.003Z,99.99
2019-01-09T07:08:46.000Z,99.99
2019-01-09T07:09:46.143Z,99.99
2019-01-09T07:10:46.164Z,99.99
2019-01-09T07:11:46.052Z,99.99
2019-01-09T07:12:46.168Z,99.99
2019-01-09T07:13:46.210Z,99.99
2019-01-09T07:14:46.105Z,99.99
2019-01-09T07:15:46.237Z,99.99
2019-01-09T07:16:46.257Z,99.99
2019-01-09T07:17:46.376Z,99.99
2019-01-09T07:18:46.286Z,99.99
2019-01-09T07:19:46.302Z,99.99
2019-01-09T07:20:46.320Z,99.99
2019-01-09T07:21:46.231Z,99.99
2019-01-09T07:22:46.270Z,99.99
2019-01-09T07:23:46.370Z,99.99
2019-01-09T07:24:46.384Z,99.99
2019-01-09T07:25:46.270Z,99.99
2019-01-09T07:26:46.308Z,99.99
2019-01-09T07:27:46.380Z,99.99
2019-01-09T07:28:46.477Z,99.99
2019-01-09T07:29:46.343Z,99.99
2019-01-09T07:30:46.480Z,99.99
2019-01-09T07:31:46.496Z,99.99
2019-01-09T07:32:46.382Z,99.99
2019-01-09T07:33:46.678Z,99.99
2019-01-09T07:34:46.548Z,99.99
2019-01-09T07:35:46.435Z,99.99
2019-01-09T07:36:46.557Z,99.99
2019-01-09T07:37:46.588Z,99.99
2019-01-09T07:38:46.495Z,99.99
2019-01-09T07:39:46.501Z,99.99
2019-01-09T07:40:46.510Z,99.99
2019-01-09T07:41:46.685Z,99.99
2019-01-09T07:42:46.550Z,99.99
2019-01-09T07:43:46.571Z,99.99
2019-01-09T07:44:46.705Z,99.99
2019-01-09T07:45:46.599Z,99.99
2019-01-09T07:46:46.662Z,99.99
2019-01-09T07:47:46.633Z,99.99
2019-01-09T07:48:46.762Z,99.99
2019-01-09T07:49:46.776Z,99.99
2019-01-09T07:50:46.666Z,99.99
2019-01-09T07:51:46.789Z,99.99
2019-01-09T07:52:46.701Z,99.99
2019-01-09T07:53:46.844Z,99.99
2019-01-09T07:54:46.858Z,99.99
2019-01-09T07:55:46.749Z,99.99
2019-01-09T07:56:47.042Z,99.99
2019-01-09T07:57:46.909Z,99.99
2019-01-09T07:58:46.813Z,99.99
2019-01-09T07:59:46.818Z,99.99
2019-01-09T08:00:46.846Z,99.99
2019-01-09T08:01:47.019Z,99.99
2019-01-09T08:02:46.855Z,99.99
2019-01-09T08:03:46.870Z,99.99
2019-01-09T08:04:47.019Z,99.99
2019-01-09T08:05:47.005Z,99.99
2019-01-09T08:06:47.048Z,99.99
2019-01-09T08:07:53.783Z,99.99
2019-01-09T08:08:47.137Z,99.99
2019-01-09T08:09:47.099Z,99.99
2019-01-09T08:10:47.077Z,99.99
2019-01-09T08:11:46.994Z,99.99
2019-01-09T08:12:47.013Z,99.99
2019-01-09T08:13:47.028Z,99.99
2019-01-09T08:14:47.180Z,99.99
2019-01-09T08:15:47.060Z,99.99
2019-01-09T08:16:47.275Z,99.99
2019-01-09T08:17:47.152Z,99.99
2019-01-09T08:18:48.367Z,99.99
2019-01-09T08:19:47.139Z,99.99
2019-01-09T08:20:47.157Z,99.99
2019-01-09T08:21:47.312Z,99.99
2019-01-09T08:22:47.180Z,99.99
2019-01-09T08:23:47.198Z,99.99
2019-01-09T08:24:47.211Z,99.99
2019-01-09T08:25:47.352Z,99.99
2019-01-09T08:26:47.343Z,99.99
2019-01-09T08:27:47.395Z,99.99
2019-01-09T08:28:47.281Z,99.99
2019-01-09T08:29:47.291Z,99.99
2019-01-09T08:30:47.312Z,99.99
2019-01-09T08:31:47.449Z,99.99
2019-01-09T08:32:47.403Z,99.99
2019-01-09T08:33:47.352Z,99.99
2019-01-09T08:34:47.407Z,99.99
2019-01-09T08:35:47.390Z,99.99
2019-01-09T08:36:47.409Z,99.99
2019-01-09T08:37:47.644Z,99.99
2019-01-09T08:38:47.649Z,99.99
2019-01-09T08:39:47.576Z,99.99
2019-01-09T08:40:47.469Z,99.99
2019-01-09T08:41:47.610Z,99.99
2019-01-09T08:42:47.611Z,99.99
2019-01-09T08:43:47.639Z,99.99
2019-01-09T08:44:47.544Z,99.99
2019-01-09T08:45:47.586Z,99.99
2019-01-09T08:46:47.566Z,99.99
2019-01-09T08:47:47.808Z,99.99
2019-01-09T08:48:47.609Z,99.99
2019-01-09T08:49:47.673Z,99.99
2019-01-09T08:50:47.757Z,99.99
2019-01-09T08:51:47.644Z,99.99
2019-01-09T08:52:47.789Z,99.99
2019-01-09T08:53:47.732Z,99.99
2019-01-09T08:54:47.821Z,99.99
2019-01-09T08:55:47.710Z,99.99
2019-01-09T08:56:47.860Z,99.99
2019-01-09T08:57:47.744Z,99.99
2019-01-09T08:58:47.872Z,99.99
2019-01-09T08:59:47.781Z,99.99
2019-01-09T09:00:47.793Z,99.99
2019-01-09T09:01:47.865Z,99.99
2019-01-09T09:02:47.836Z,99.99
2019-01-09T09:03:48.067Z,99.99
2019-01-09T09:04:47.869Z,99.99
2019-01-09T09:05:47.924Z,99.99
2019-01-09T09:06:47.945Z,99.99
2019-01-09T09:07:48.041Z,99.99
2019-01-09T09:08:48.028Z,99.99
2019-01-09T09:09:47.945Z,99.99
2019-01-09T09:10:47.963Z,99.99
2019-01-09T09:11:48.103Z,99.99
2019-01-09T09:12:47.993Z,99.99
2019-01-09T09:13:48.118Z,99.99
2019-01-09T09:14:48.032Z,99.99
2019-01-09T09:15:48.167Z,99.99
2019-01-09T09:16:48.185Z,99.99
2019-01-09T09:17:48.202Z,99.99
2019-01-09T09:18:48.371Z,99.99
2019-01-09T09:19:48.102Z,99.99
2019-01-09T09:20:48.254Z,99.99
2019-01-09T09:21:48.164Z,99.99
2019-01-09T09:22:48.156Z,99.99
2019-01-09T09:23:48.170Z,99.99
2019-01-09T09:24:48.316Z,99.99
2019-01-09T09:25:48.231Z,99.99
2019-01-09T09:26:48.242Z,99.99
2019-01-09T09:27:48.254Z,99.99
2019-01-09T09:28:48.259Z,99.99
2019-01-09T09:29:48.423Z,99.99
2019-01-09T09:30:48.309Z,99.99
2019-01-09T09:31:48.315Z,99.99
2019-01-09T09:32:48.338Z,99.99
2019-01-09T09:33:48.352Z,99.99
2019-01-09T09:34:48.469Z,99.99
2019-01-09T09:35:48.388Z,97.42
2019-01-09T09:36:48.531Z,97.08
2019-01-09T09:37:48.557Z,95.82
2019-01-09T09:38:48.450Z,96.31
2019-01-09T09:39:48.610Z,96.55
2019-01-09T09:40:48.706Z,96.21
2019-01-09T09:41:48.511Z,94.75
2019-01-09T09:42:48.546Z,93.68
2019-01-09T09:43:48.541Z,93.39
2019-01-09T09:44:48.660Z,92.61
2019-01-09T09:45:48.703Z,93.29
2019-01-09T09:46:48.593Z,94.36
2019-01-09T09:47:48.616Z,93.68
2019-01-09T09:48:48.647Z,94.17
2019-01-09T09:49:48.743Z,93.44
2019-01-09T09:50:48.793Z,92.52
2019-01-09T09:51:48.702Z,93.34
2019-01-09T09:52:48.722Z,92.22
2019-01-09T09:53:48.748Z,91.74
2019-01-09T09:54:48.793Z,91.84
2019-01-09T09:55:48.768Z,90.87
2019-01-09T09:56:48.783Z,91.16
2019-01-09T09:57:48.800Z,91.94
2019-01-09T09:58:48.819Z,91.55
2019-01-09T09:59:49.063Z,91.94
2019-01-09T10:00:48.982Z,91.06
2019-01-09T10:01:49.002Z,92.22
2019-01-09T10:02:48.894Z,91.74
2019-01-09T10:03:48.918Z,91.25
2019-01-09T10:04:48.978Z,91.06
2019-01-09T10:05:48.974Z,90.87
2019-01-09T10:06:48.984Z,90.52
2019-01-09T10:07:49.011Z,89.84
2019-01-09T10:08:49.058Z,90.23
2019-01-09T10:09:49.175Z,89.17
2019-01-09T10:10:49.053Z,89.40
2019-01-09T10:11:49.190Z,88.04
2019-01-09T10:12:49.210Z,88.04
2019-01-09T10:13:49.228Z,87.60
2019-01-09T10:14:49.346Z,87.16
2019-01-09T10:15:49.133Z,84.42
2019-01-09T10:16:49.159Z,82.96
2019-01-09T10:17:49.197Z,81.05
2019-01-09T10:18:49.219Z,81.44
2019-01-09T10:19:49.316Z,80.95
2019-01-09T10:20:49.239Z,79.84
2019-01-09T10:21:49.249Z,80.04
2019-01-09T10:22:51.491Z,80.62
2019-01-09T10:23:49.287Z,80.48
2019-01-09T10:24:49.539Z,80.87
2019-01-09T10:25:49.329Z,81.07
2019-01-09T10:26:49.360Z,80.93
2019-01-09T10:27:49.407Z,81.22
2019-01-09T10:28:49.515Z,80.74
2019-01-09T10:29:49.460Z,80.89
2019-01-09T10:30:49.494Z,81.16
2019-01-09T10:31:49.575Z,79.30
2019-01-09T10:32:49.560Z,77.09
2019-01-09T10:33:49.505Z,75.86
2019-01-09T10:34:49.519Z,74.50
2019-01-09T10:35:49.655Z,74.11
2019-01-09T10:36:49.556Z,74.56
2019-01-09T10:37:49.745Z,75.53
2019-01-09T10:38:49.716Z,75.59
2019-01-09T10:39:49.737Z,76.61
2019-01-09T10:40:49.752Z,76.15
2019-01-09T10:41:49.777Z,74.61
2019-01-09T10:42:49.797Z,71.75
2019-01-09T10:43:49.736Z,69.18
2019-01-09T10:44:49.722Z,65.42
2019-01-09T10:45:49.784Z,63.69
2019-01-09T10:46:49.758Z,63.98
2019-01-09T10:47:49.777Z,62.77
2019-01-09T10:48:49.808Z,62.41
2019-01-09T10:49:49.811Z,59.59
2019-01-09T10:50:50.015Z,58.74
2019-01-09T10:51:49.855Z,58.18
2019-01-09T10:52:49.875Z,57.81
2019-01-09T10:53:50.127Z,56.27
2019-01-09T10:54:50.049Z,55.24
2019-01-09T10:55:49.950Z,52.68
2019-01-09T10:56:50.095Z,53.17
2019-01-09T10:57:50.006Z,53.86
2019-01-09T10:58:50.198Z,52.63
2019-01-09T10:59:50.032Z,52.04
2019-01-09T11:00:50.192Z,51.69
2019-01-09T11:01:50.251Z,49.52
2019-01-09T11:02:50.118Z,50.36
2019-01-09T11:03:50.262Z,51.30
2019-01-09T11:04:50.168Z,52.95
2019-01-09T11:05:50.189Z,53.05
2019-01-09T11:06:50.325Z,52.55
2019-01-09T11:07:50.232Z,52.87
2019-01-09T11:08:50.257Z,53.00
2019-01-09T11:09:50.407Z,51.97
2019-01-09T11:10:50.430Z,51.03
2019-01-09T11:11:50.481Z,49.20
2019-01-09T11:12:50.350Z,47.47
2019-01-09T11:13:50.504Z,45.71
2019-01-09T11:14:50.391Z,44.74
2019-01-09T11:15:50.444Z,45.14
2019-01-09T11:16:50.590Z,45.43
2019-01-09T11:17:50.480Z,45.14
2019-01-09T11:18:50.546Z,44.67
2019-01-09T11:19:50.650Z,44.17
2019-01-09T11:20:50.550Z,44.19
2019-01-09T11:21:50.853Z,43.30
2019-01-09T11:22:50.609Z,43.30
2019-01-09T11:23:50.634Z,43.18
2019-01-09T11:24:50.653Z,43.87
2019-01-09T11:25:50.810Z,44.13
2019-01-09T11:26:50.749Z,45.67
2019-01-09T11:27:50.855Z,46.31
2019-01-09T11:28:50.761Z,46.53
2019-01-09T11:29:50.908Z,46.16
2019-01-09T11:30:50.809Z,45.21
2019-01-09T11:31:50.940Z,44.82
2019-01-09T11:32:50.978Z,43.57
2019-01-09T11:33:51.006Z,42.50
2019-01-09T11:34:51.029Z,42.13
2019-01-09T11:35:50.937Z,42.05
2019-01-09T11:36:51.098Z,41.26
2019-01-09T11:37:53.044Z,40.88
2019-01-09T11:38:55.633Z,40.88
2019-01-09T11:39:51.037Z,40.98
2019-01-09T11:40:51.186Z,40.60
2019-01-09T11:41:51.356Z,40.41
2019-01-09T11:42:51.116Z,40.11
2019-01-09T11:43:51.186Z,39.15
2019-01-09T11:44:51.290Z,39.37
2019-01-09T11:45:51.191Z,38.89
2019-01-09T11:46:51.263Z,37.53
2019-01-09T11:47:51.245Z,36.74
2019-01-09T11:48:51.401Z,36.14
2019-01-09T11:49:51.308Z,36.72
2019-01-09T11:50:51.336Z,37.00
2019-01-09T11:51:51.502Z,37.10
2019-01-09T11:52:51.390Z,37.58
2019-01-09T11:53:51.425Z,37.77
2019-01-09T11:54:51.557Z,37.98
2019-01-09T11:55:51.459Z,37.88
2019-01-09T11:56:51.619Z,38.45
2019-01-09T11:57:51.523Z,39.13
2019-01-09T11:58:51.562Z,38.83
2019-01-09T11:59:51.573Z,38.43
2019-01-09T12:00:51.594Z,39.03
2019-01-09T12:01:51.771Z,38.45
2019-01-09T12:02:51.645Z,37.86
2019-01-09T12:03:51.690Z,38.16
2019-01-09T12:04:51.713Z,37.68
2019-01-09T12:05:51.741Z,36.90
2019-01-09T12:06:51.870Z,36.60
2019-01-09T12:07:51.792Z,36.04
2019-01-09T12:08:51.828Z,35.47
2019-01-09T12:09:51.894Z,35.61
2019-01-09T12:10:51.908Z,34.25
2019-01-09T12:11:52.116Z,33.56
2019-01-09T12:12:51.926Z,33.65
2019-01-09T12:13:53.297Z,32.83
2019-01-09T12:14:52.103Z,33.80
2019-01-09T12:15:52.016Z,33.40
2019-01-09T12:16:52.211Z,33.38
2019-01-09T12:17:52.061Z,33.48
2019-01-09T12:18:52.212Z,34.28
2019-01-09T12:19:52.115Z,34.16
2019-01-09T12:20:52.169Z,34.48
2019-01-09T12:21:52.227Z,34.20
2019-01-09T12:22:52.200Z,33.81
2019-01-09T12:23:52.353Z,32.82
2019-01-09T12:24:52.258Z,32.92
2019-01-09T12:25:52.303Z,32.83
2019-01-09T12:26:52.324Z,31.95
2019-01-09T12:27:52.460Z,31.05
2019-01-09T12:28:53.762Z,31.22
2019-01-09T12:29:52.396Z,32.39
2019-01-09T12:30:52.439Z,32.98
2019-01-09T12:31:52.460Z,33.07
2019-01-09T12:32:52.529Z,33.75
2019-01-09T12:33:52.640Z,33.68
2019-01-09T12:34:52.546Z,33.18
2019-01-09T12:35:52.696Z,33.00
2019-01-09T12:36:52.722Z,32.62
2019-01-09T12:37:52.857Z,32.83
2019-01-09T12:38:52.782Z,30.95
2019-01-09T12:39:52.681Z,31.05
2019-01-09T12:40:52.713Z,30.77
2019-01-09T12:41:52.866Z,30.36
2019-01-09T12:42:52.875Z,29.98
2019-01-09T12:43:52.806Z,29.60
2019-01-09T12:44:52.822Z,30.21
2019-01-09T12:45:52.863Z,29.94
2019-01-09T12:46:53.012Z,28.16
2019-01-09T12:47:53.142Z,27.45
2019-01-09T12:48:52.948Z,28.32
2019-01-09T12:49:53.104Z,28.61
2019-01-09T12:50:53.029Z,29.01
2019-01-09T12:51:53.042Z,28.21
2019-01-09T12:52:53.155Z,28.09